Terminal Aerodrome Forecast
Issued by NWS

Home | Current Version | Previous Version | Text Only | Print | Product List | Glossary On
Versions: 1 2 3 4 5 6 7 8 9 10 11 12 13 14 15 16 17 18 19 20 21 22 23 24 25 26
000
FTUS42 KMLB 270540
TAFLEE
TAF
KLEE 270540Z 2706/2806 21007KT P6SM VCSH SCT120
      TEMPO 2706/2710 -SHRA SCT020 BKN035
     FM271200 22014G20KT P6SM VCSH SCT025 OVC060
     FM271500 23015G25KT 5SM SHRA VCTS BKN020CB OVC050
     FM271800 25013KT P6SM VCSH BKN020 OVC050
     FM280200 29013KT P6SM SCT035=

USA.gov is the U.S. government's official web portal to all federal, state and local government web resources and services.